Time;durP1;ratioP1;P1;durP2;ratioP2;P2;SDS_P1;SDS_P2;PMS_P1;PMS_P2;Temp;Humidity;BMP_temperature;BMP_pressure;BME280_temperature;BME280_humidity;BME280_pressure;Samples;Min_cycle;Max_cycle;Signal;HPM_P1;HPM_P2
2022/08/20 00:02:06;;;;;;;2.05;1.90;;;24.10;65.40;;;;;;5070278;28;20519;-66
2022/08/20 00:04:32;;;;;;;2.03;1.83;;;24.10;65.40;;;;;;5071534;28;20032;-66
2022/08/20 00:06:58;;;;;;;1.83;1.67;;;24.10;65.40;;;;;;5072234;28;20036;-67
2022/08/20 00:09:24;;;;;;;1.98;1.45;;;24.10;65.40;;;;;;5074533;28;20044;-66
2022/08/20 00:11:49;;;;;;;1.80;1.17;;;24.10;65.40;;;;;;5074295;28;20039;-66
2022/08/20 00:14:15;;;;;;;1.40;1.30;;;24.10;65.40;;;;;;5074152;28;20033;-66
2022/08/20 00:16:41;;;;;;;2.17;1.98;;;24.10;65.40;;;;;;5074456;28;20040;-66
2022/08/20 00:19:08;;;;;;;2.00;1.77;;;24.10;65.40;;;;;;5075370;28;20119;-67
2022/08/20 00:21:35;;;;;;;1.90;1.58;;;24.10;65.40;;;;;;5074114;28;20047;-66
2022/08/20 00:24:01;;;;;;;1.42;1.33;;;24.10;65.40;;;;;;5074224;28;20051;-66
2022/08/20 00:26:27;;;;;;;1.75;1.52;;;24.10;65.40;;;;;;5073851;28;20488;-66
2022/08/20 00:28:53;;;;;;;1.38;1.27;;;24.10;65.40;;;;;;5075110;28;20028;-66
2022/08/20 00:31:22;;;;;;;2.08;1.50;;;24.10;65.40;;;;;;5073987;28;20047;-66
2022/08/20 00:33:48;;;;;;;1.45;1.35;;;24.10;65.40;;;;;;5075042;28;20041;-66
2022/08/20 00:36:16;;;;;;;2.95;1.80;;;24.10;65.40;;;;;;5074080;28;20044;-66
2022/08/20 00:38:43;;;;;;;1.90;1.70;;;24.10;65.40;;;;;;5075315;28;20511;-66
2022/08/20 00:41:14;;;;;;;1.75;1.65;;;24.10;65.50;;;;;;5073843;28;20044;-66
2022/08/20 00:43:43;;;;;;;3.30;1.70;;;24.10;65.50;;;;;;5073613;28;20041;-66
2022/08/20 00:46:14;;;;;;;1.30;1.20;;;24.10;65.40;;;;;;5073334;28;20048;-66
2022/08/20 00:48:44;;;;;;;1.30;1.20;;;24.10;65.50;;;;;;5073813;28;20485;-66
2022/08/20 00:51:37;;;;;;;1.40;1.30;;;24.00;65.40;;;;;;5073699;28;20053;-66
2022/08/20 00:54:16;;;;;;;2.05;1.40;;;24.10;65.50;;;;;;5073590;28;20362;-66
2022/08/20 00:56:45;;;;;;;1.40;1.30;;;24.10;65.50;;;;;;5073762;28;20036;-66
2022/08/20 00:59:16;;;;;;;1.63;1.48;;;24.00;65.40;;;;;;5073461;28;20044;-66
2022/08/20 01:01:43;;;;;;;1.50;1.35;;;24.00;65.40;;;;;;5073639;28;20040;-66
2022/08/20 01:04:10;;;;;;;1.88;1.45;;;24.00;65.50;;;;;;5074515;28;20050;-66
2022/08/20 01:06:37;;;;;;;1.83;1.73;;;24.00;65.50;;;;;;5073156;28;20485;-66
2022/08/20 01:09:04;;;;;;;1.83;1.67;;;24.00;65.40;;;;;;5074481;28;20044;-70
2022/08/20 01:11:33;;;;;;;1.80;1.50;;;24.00;65.50;;;;;;5073174;28;20043;-67
2022/08/20 01:14:04;;;;;;;1.67;1.52;;;24.00;65.40;;;;;;5073162;28;20044;-66
2022/08/20 01:16:31;;;;;;;2.05;1.67;;;24.00;65.50;;;;;;5057245;28;20502;-66
2022/08/20 01:18:59;;;;;;;2.00;1.50;;;24.00;65.50;;;;;;5073890;28;20043;-66
2022/08/20 01:21:27;;;;;;;3.00;1.95;;;24.00;65.50;;;;;;5072921;28;20046;-66
2022/08/20 01:24:05;;;;;;;1.25;1.15;;;24.00;65.50;;;;;;5073120;28;20044;-66
2022/08/20 01:26:37;;;;;;;1.67;1.40;;;24.00;65.50;;;;;;5072805;28;20036;-66
2022/08/20 01:29:09;;;;;;;1.50;1.40;;;24.00;65.50;;;;;;5073172;28;20123;-67
2022/08/20 01:31:38;;;;;;;1.60;1.40;;;23.90;65.40;;;;;;5072658;28;20471;-66
2022/08/20 01:34:06;;;;;;;1.55;1.45;;;24.00;65.40;;;;;;5074366;28;20037;-66
2022/08/20 01:39:21;;;;;;;2.25;1.30;;;24.00;65.50;;;;;;5130322;27;20378;-66
2022/08/20 01:42:16;;;;;;;1.95;1.48;;;24.00;65.40;;;;;;5129222;28;20047;-66
2022/08/20 01:44:43;;;;;;;1.98;1.70;;;24.00;65.50;;;;;;5130228;27;20433;-66
2022/08/20 01:47:30;;;;;;;1.40;0.93;;;23.90;65.40;;;;;;5129125;28;20126;-66
2022/08/20 01:50:06;;;;;;;1.83;1.00;;;23.90;65.50;;;;;;5128909;28;20092;-66
2022/08/20 01:52:42;;;;;;;1.52;1.40;;;23.90;65.40;;;;;;5128661;28;20122;-66
2022/08/20 01:55:08;;;;;;;2.10;1.10;;;23.90;65.40;;;;;;5130284;27;20054;-66
2022/08/20 01:57:36;;;;;;;1.42;1.15;;;23.90;65.40;;;;;;5128717;28;20046;-66
2022/08/20 02:00:07;;;;;;;1.48;1.17;;;23.90;65.50;;;;;;5128961;28;20104;-66
2022/08/20 02:02:33;;;;;;;1.52;1.30;;;23.90;65.40;;;;;;5129901;27;20111;-66
2022/08/20 02:04:59;;;;;;;1.20;1.10;;;23.90;65.40;;;;;;5128496;28;20458;-66
2022/08/20 02:07:25;;;;;;;1.98;1.45;;;23.90;65.50;;;;;;5128642;28;20395;-66
2022/08/20 02:09:51;;;;;;;1.67;1.50;;;23.90;65.40;;;;;;5128654;28;20049;-66
2022/08/20 02:12:18;;;;;;;1.98;1.30;;;23.90;65.40;;;;;;5129610;27;20487;-66
2022/08/20 02:14:52;;;;;;;1.33;1.13;;;23.90;65.40;;;;;;5128296;28;20044;-66
2022/08/20 02:17:21;;;;;;;1.30;1.20;;;23.90;65.40;;;;;;5111397;28;20126;-66
2022/08/20 02:19:53;;;;;;;1.88;1.40;;;23.90;65.50;;;;;;5128690;28;20031;-66
2022/08/20 02:24:58;;;;;;;1.40;1.15;;;23.90;65.50;;;;;;5130297;27;20387;-66
2022/08/20 02:27:24;;;;;;;1.27;1.00;;;23.90;65.40;;;;;;5163370;27;20100;-66
2022/08/20 02:29:51;;;;;;;1.30;0.90;;;23.90;65.40;;;;;;5129237;28;20043;-66
2022/08/20 02:32:17;;;;;;;1.98;1.48;;;23.90;65.50;;;;;;5130099;27;20039;-66
2022/08/20 02:34:44;;;;;;;1.45;1.20;;;23.90;65.40;;;;;;5129079;28;20096;-66
2022/08/20 02:37:10;;;;;;;1.38;1.27;;;23.90;65.40;;;;;;5129226;28;20092;-66
2022/08/20 02:39:36;;;;;;;1.40;1.13;;;23.90;65.40;;;;;;5128776;28;20048;-66
2022/08/20 02:42:02;;;;;;;1.50;0.88;;;23.90;65.40;;;;;;5128770;28;20073;-66
2022/08/20 02:44:29;;;;;;;1.27;1.17;;;23.90;65.40;;;;;;5128575;28;20123;-66
2022/08/20 02:46:54;;;;;;;1.80;1.52;;;23.90;65.40;;;;;;5128610;28;20042;-66
2022/08/20 02:49:20;;;;;;;0.95;0.77;;;23.90;65.40;;;;;;5128425;28;20035;-65
2022/08/20 02:51:46;;;;;;;1.35;0.90;;;23.90;65.40;;;;;;5128784;28;20092;-66
2022/08/20 02:54:13;;;;;;;1.45;1.20;;;23.90;65.40;;;;;;5128383;28;20122;-66
2022/08/20 02:56:39;;;;;;;1.83;1.23;;;23.90;65.40;;;;;;5128719;28;20493;-66
2022/08/20 02:59:05;;;;;;;1.13;1.02;;;23.80;65.30;;;;;;5128598;28;20036;-66
2022/08/20 03:01:32;;;;;;;1.38;0.93;;;23.80;65.30;;;;;;5128251;28;20543;-66
2022/08/20 03:03:58;;;;;;;1.48;1.20;;;23.90;65.40;;;;;;5128185;28;20043;-66
2022/08/20 03:06:25;;;;;;;1.40;0.73;;;23.80;65.30;;;;;;5129814;27;20112;-66
2022/08/20 03:08:51;;;;;;;2.25;1.50;;;23.80;65.40;;;;;;5128434;28;20031;-66
2022/08/20 03:11:17;;;;;;;1.55;1.23;;;23.80;65.40;;;;;;5128458;28;20475;-66
2022/08/20 03:13:44;;;;;;;1.40;1.10;;;23.80;65.30;;;;;;5128373;28;20075;-66
2022/08/20 03:16:10;;;;;;;1.55;1.10;;;23.80;65.40;;;;;;5128026;28;20114;-66
2022/08/20 03:18:41;;;;;;;1.20;1.08;;;23.80;65.30;;;;;;5128240;28;20040;-66
2022/08/20 03:21:08;;;;;;;2.05;1.05;;;23.80;65.40;;;;;;5128272;28;20402;-66
2022/08/20 03:23:34;;;;;;;1.75;0.98;;;23.80;65.40;;;;;;5127573;28;20051;-66
2022/08/20 03:26:00;;;;;;;1.85;1.02;;;23.80;65.30;;;;;;5129349;27;20372;-66
2022/08/20 03:28:26;;;;;;;2.03;0.95;;;23.80;65.30;;;;;;5162438;27;20043;-66
2022/08/20 03:30:53;;;;;;;1.13;0.90;;;23.80;65.30;;;;;;5127982;28;20042;-66
2022/08/20 03:33:19;;;;;;;1.20;0.90;;;23.80;65.40;;;;;;5127654;28;20069;-66
2022/08/20 03:35:46;;;;;;;1.95;1.00;;;23.80;65.30;;;;;;5118330;27;20047;-66
2022/08/20 03:38:14;;;;;;;1.13;0.95;;;23.80;65.30;;;;;;5114237;28;20031;-66
2022/08/20 03:40:41;;;;;;;1.15;1.05;;;23.80;65.30;;;;;;5114143;28;20119;-66
2022/08/20 03:43:08;;;;;;;1.40;1.17;;;23.70;65.20;;;;;;5115254;27;20047;-66
2022/08/20 03:45:35;;;;;;;1.38;1.23;;;23.80;65.30;;;;;;5113742;28;20035;-66
2022/08/20 03:48:02;;;;;;;2.35;1.05;;;23.70;65.30;;;;;;5114055;28;20039;-66
2022/08/20 03:50:30;;;;;;;1.30;1.00;;;23.80;65.30;;;;;;5114222;28;20073;-66
2022/08/20 03:52:56;;;;;;;1.33;0.90;;;23.70;65.30;;;;;;5113699;28;20047;-65
2022/08/20 03:55:23;;;;;;;1.30;1.20;;;23.80;65.30;;;;;;5113592;28;20048;-66
2022/08/20 03:57:51;;;;;;;1.50;1.13;;;23.80;65.30;;;;;;5113835;28;20089;-66
2022/08/20 04:00:23;;;;;;;1.25;0.82;;;23.70;66.00;;;;;;5114789;28;20044;-66
2022/08/20 04:02:48;;;;;;;1.30;1.00;;;23.70;65.20;;;;;;5113616;28;20391;-66
2022/08/20 04:05:14;;;;;;;1.27;0.95;;;23.70;65.20;;;;;;5113454;28;20035;-66
2022/08/20 04:07:40;;;;;;;2.05;1.00;;;23.70;65.20;;;;;;5114902;28;20066;-66
2022/08/20 04:10:09;;;;;;;1.10;0.93;;;23.70;65.20;;;;;;5114649;28;20078;-66
2022/08/20 04:12:39;;;;;;;1.35;0.90;;;23.70;65.20;;;;;;5113435;28;20296;-66
2022/08/20 04:15:08;;;;;;;1.30;0.90;;;23.70;65.20;;;;;;5113503;28;20035;-66
2022/08/20 04:17:33;;;;;;;1.40;0.95;;;23.70;65.20;;;;;;5113135;28;20114;-66
2022/08/20 04:20:02;;;;;;;1.20;0.95;;;23.70;65.20;;;;;;5114405;28;20122;-66
2022/08/20 04:22:29;;;;;;;1.35;1.20;;;23.70;65.20;;;;;;5113330;28;20039;-66
2022/08/20 04:24:54;;;;;;;2.47;1.10;;;23.70;65.20;;;;;;5112787;28;20056;-66
2022/08/20 04:27:20;;;;;;;1.00;0.73;;;23.70;65.20;;;;;;5113139;28;20043;-65
2022/08/20 04:29:46;;;;;;;2.15;1.00;;;23.70;65.20;;;;;;5113018;28;20040;-66
2022/08/20 04:32:11;;;;;;;1.80;1.30;;;23.70;65.20;;;;;;5113027;28;20039;-66
2022/08/20 04:34:38;;;;;;;1.60;0.82;;;23.70;65.20;;;;;;5114467;28;20035;-65
2022/08/20 04:37:04;;;;;;;1.40;0.90;;;23.70;65.20;;;;;;5096220;28;20047;-66
2022/08/20 04:39:30;;;;;;;1.58;1.05;;;23.70;65.10;;;;;;5113081;28;20043;-66
2022/08/20 04:41:55;;;;;;;2.00;0.88;;;23.70;65.10;;;;;;5112914;28;20040;-66
2022/08/20 04:44:21;;;;;;;1.05;0.77;;;23.70;65.10;;;;;;5114292;28;20082;-66
2022/08/20 04:46:47;;;;;;;0.90;0.60;;;23.70;65.10;;;;;;5112802;28;20082;-66
2022/08/20 04:49:13;;;;;;;0.98;0.80;;;23.70;65.10;;;;;;5113831;28;20406;-66
2022/08/20 04:51:39;;;;;;;1.52;0.75;;;23.60;65.00;;;;;;5112611;28;20054;-66
2022/08/20 04:54:05;;;;;;;0.85;0.70;;;23.60;65.00;;;;;;5112755;28;20086;-66
2022/08/20 04:56:37;;;;;;;1.50;0.90;;;23.70;65.10;;;;;;5112314;28;20047;-66
2022/08/20 04:59:04;;;;;;;1.58;0.80;;;23.70;65.10;;;;;;5112446;28;20046;-66
2022/08/20 05:01:30;;;;;;;1.00;0.80;;;23.60;65.10;;;;;;5112938;28;20040;-66
2022/08/20 05:03:57;;;;;;;1.10;0.60;;;23.60;65.00;;;;;;5112272;28;20429;-66
2022/08/20 05:06:28;;;;;;;1.35;0.88;;;23.60;65.00;;;;;;5112221;28;20031;-66
2022/08/20 05:08:56;;;;;;;1.42;0.88;;;23.60;65.00;;;;;;5113436;28;20114;-66
2022/08/20 05:11:23;;;;;;;1.42;1.17;;;23.60;65.00;;;;;;5112402;28;20031;-66
2022/08/20 05:13:51;;;;;;;1.98;1.15;;;23.60;65.00;;;;;;5112339;28;20044;-66
2022/08/20 05:16:18;;;;;;;0.90;0.70;;;23.60;65.00;;;;;;5112242;28;20391;-66
2022/08/20 05:18:45;;;;;;;1.45;0.80;;;23.60;65.20;;;;;;5112229;28;20127;-66
2022/08/20 05:21:11;;;;;;;1.90;1.05;;;23.60;65.00;;;;;;5112150;28;20085;-66
2022/08/20 05:23:41;;;;;;;1.52;0.73;;;23.60;65.00;;;;;;5112782;28;20051;-66
2022/08/20 05:26:09;;;;;;;0.90;0.73;;;23.60;64.90;;;;;;5113122;28;20055;-66
2022/08/20 05:28:37;;;;;;;1.00;0.90;;;23.60;65.00;;;;;;5111657;28;20039;-66
2022/08/20 05:31:04;;;;;;;1.00;0.73;;;23.60;64.90;;;;;;5111970;28;20043;-66
2022/08/20 05:33:29;;;;;;;1.17;1.00;;;23.60;64.90;;;;;;5112129;28;20062;-66
2022/08/20 05:35:56;;;;;;;1.70;0.63;;;23.60;64.90;;;;;;5111731;28;20445;-66
2022/08/20 05:38:25;;;;;;;1.42;1.00;;;23.60;64.90;;;;;;5112882;28;20096;-66
2022/08/20 05:40:52;;;;;;;1.15;0.85;;;23.60;64.90;;;;;;5112979;28;20446;-66
2022/08/20 05:43:18;;;;;;;0.95;0.88;;;23.50;64.80;;;;;;5111463;28;20040;-66
2022/08/20 05:45:45;;;;;;;1.88;0.90;;;23.50;64.80;;;;;;5111436;28;20114;-66
2022/08/20 05:48:15;;;;;;;1.10;0.63;;;23.50;64.80;;;;;;5111816;28;20081;-66
2022/08/20 05:50:42;;;;;;;1.67;1.13;;;23.50;64.80;;;;;;5111682;28;20044;-66
2022/08/20 05:53:08;;;;;;;1.90;0.80;;;23.50;64.80;;;;;;5111463;28;20047;-66
2022/08/20 05:55:36;;;;;;;1.13;0.70;;;23.50;64.80;;;;;;5111326;28;20053;-66
2022/08/20 05:58:04;;;;;;;1.20;1.10;;;23.50;64.70;;;;;;5111083;28;20487;-66
2022/08/20 06:00:32;;;;;;;2.05;0.90;;;23.50;64.70;;;;;;5128615;27;20065;-66
2022/08/20 06:05:46;;;;;;;1.30;0.80;;;23.50;64.70;;;;;;5110927;28;20052;-66
2022/08/20 06:08:12;;;;;;;2.22;0.73;;;23.50;64.70;;;;;;5145594;27;20039;-66
2022/08/20 06:10:39;;;;;;;2.38;1.02;;;23.50;64.60;;;;;;5112413;28;20067;-66
2022/08/20 06:13:05;;;;;;;1.30;0.68;;;23.50;64.60;;;;;;5112369;28;20410;-65
2022/08/20 06:15:32;;;;;;;1.23;0.70;;;23.50;64.60;;;;;;5111029;28;20071;-66
2022/08/20 06:17:58;;;;;;;0.82;0.60;;;23.50;64.60;;;;;;5145778;27;20114;-66
2022/08/20 06:20:24;;;;;;;1.00;0.77;;;23.50;64.50;;;;;;5111222;28;20518;-66
2022/08/20 06:22:50;;;;;;;1.05;0.80;;;23.50;64.50;;;;;;5111012;28;20088;-66
2022/08/20 06:25:16;;;;;;;1.35;0.80;;;23.50;64.50;;;;;;5112254;28;20399;-66
2022/08/20 06:27:42;;;;;;;1.42;0.90;;;23.50;64.50;;;;;;5111342;28;20488;-66
2022/08/20 06:30:10;;;;;;;1.92;0.95;;;23.50;64.50;;;;;;5110951;28;20395;-66
2022/08/20 06:32:36;;;;;;;1.98;0.70;;;23.50;64.50;;;;;;5110931;28;20040;-66
2022/08/20 06:35:04;;;;;;;1.10;0.80;;;23.50;64.50;;;;;;5112134;28;20054;-65
2022/08/20 06:37:31;;;;;;;0.98;0.60;;;23.50;64.50;;;;;;5111158;28;20032;-66
2022/08/20 06:40:02;;;;;;;1.02;0.60;;;23.50;64.40;;;;;;5110832;28;20046;-66
2022/08/20 06:42:27;;;;;;;1.02;0.80;;;23.50;64.40;;;;;;5112059;28;20035;-66
2022/08/20 06:44:53;;;;;;;1.23;0.60;;;23.50;64.40;;;;;;5145196;27;20437;-66
2022/08/20 06:47:19;;;;;;;1.90;1.00;;;23.50;64.40;;;;;;5145325;27;20394;-66
2022/08/20 06:49:46;;;;;;;1.75;0.75;;;23.50;64.30;;;;;;5112164;28;20043;-66
2022/08/20 06:52:15;;;;;;;2.00;0.47;;;23.40;64.20;;;;;;5110749;28;20114;-66
2022/08/20 06:54:41;;;;;;;0.90;0.50;;;23.50;64.20;;;;;;5111087;28;20468;-66
2022/08/20 06:57:08;;;;;;;1.08;0.60;;;23.50;64.20;;;;;;5111982;28;20055;-66
2022/08/20 06:59:35;;;;;;;0.88;0.70;;;23.50;64.20;;;;;;5110991;28;20039;-66
2022/08/20 07:02:01;;;;;;;1.13;0.73;;;23.50;64.20;;;;;;5112140;28;20040;-66
2022/08/20 07:04:27;;;;;;;1.52;0.52;;;23.50;64.20;;;;;;5110705;28;20047;-66
2022/08/20 07:06:56;;;;;;;0.85;0.55;;;23.50;64.20;;;;;;5110657;28;20044;-65
2022/08/20 07:09:23;;;;;;;0.90;0.70;;;23.50;64.20;;;;;;5110858;28;20039;-66
2022/08/20 07:11:49;;;;;;;1.10;0.65;;;23.50;64.20;;;;;;5114716;28;20055;-66
2022/08/20 07:14:17;;;;;;;1.25;0.60;;;23.50;64.20;;;;;;5116109;28;20482;-65
2022/08/20 07:16:43;;;;;;;2.38;0.70;;;23.40;64.10;;;;;;5115690;28;20039;-65
2022/08/20 07:19:09;;;;;;;1.17;0.63;;;23.50;64.20;;;;;;5114733;28;20176;-66
2022/08/20 07:21:35;;;;;;;1.58;0.52;;;23.40;64.10;;;;;;5115601;28;20391;-66
2022/08/20 07:24:02;;;;;;;1.10;0.60;;;23.40;64.10;;;;;;5115316;28;20055;-66
2022/08/20 07:26:27;;;;;;;2.00;0.70;;;23.50;64.00;;;;;;5114267;28;20442;-66
2022/08/20 07:28:56;;;;;;;1.27;0.70;;;23.50;64.00;;;;;;5114221;28;20032;-65
2022/08/20 07:34:10;;;;;;;1.15;0.52;;;23.50;64.00;;;;;;5113893;28;20054;-65
2022/08/20 07:36:36;;;;;;;1.20;0.60;;;23.50;63.90;;;;;;5114300;28;20102;-65
2022/08/20 07:39:02;;;;;;;1.00;0.60;;;23.40;63.80;;;;;;5113880;28;20055;-65
2022/08/20 07:41:28;;;;;;;1.50;0.60;;;23.40;63.80;;;;;;5114223;28;20039;-65
2022/08/20 07:43:53;;;;;;;2.17;0.90;;;23.50;63.80;;;;;;5148029;27;20509;-65
2022/08/20 07:46:20;;;;;;;1.08;0.60;;;23.40;63.80;;;;;;5113890;28;20031;-65
2022/08/20 07:48:48;;;;;;;1.70;0.75;;;23.40;63.80;;;;;;5115035;28;20036;-65
2022/08/20 07:51:16;;;;;;;2.30;0.60;;;23.40;63.70;;;;;;5115127;28;20040;-66
2022/08/20 07:53:43;;;;;;;2.42;0.63;;;23.40;63.70;;;;;;5113590;28;20042;-65
2022/08/20 07:56:12;;;;;;;2.13;0.70;;;23.50;63.80;;;;;;5115022;28;20115;-65
2022/08/20 07:58:42;;;;;;;1.63;0.50;;;23.40;63.70;;;;;;5113620;28;20040;-65
2022/08/20 08:01:10;;;;;;;1.08;0.45;;;23.40;63.60;;;;;;5113922;28;20032;-65
2022/08/20 08:03:36;;;;;;;0.98;0.80;;;23.40;63.60;;;;;;5114746;28;20107;-65
2022/08/20 08:06:03;;;;;;;1.10;0.50;;;23.40;63.50;;;;;;5114942;27;20452;-65
2022/08/20 08:08:32;;;;;;;1.15;0.68;;;23.40;63.50;;;;;;5113598;28;20085;-65
2022/08/20 08:11:01;;;;;;;1.83;0.75;;;23.40;63.40;;;;;;5113695;28;20391;-65
2022/08/20 08:13:31;;;;;;;1.63;0.75;;;23.40;63.50;;;;;;5113327;28;20050;-65
2022/08/20 08:16:00;;;;;;;0.85;0.52;;;23.40;63.40;;;;;;5113321;28;20109;-65
2022/08/20 08:18:32;;;;;;;2.03;0.53;;;23.40;63.30;;;;;;5113502;28;20054;-65
2022/08/20 08:20:58;;;;;;;1.20;0.50;;;23.50;63.30;;;;;;5113053;28;20055;-65
2022/08/20 08:23:24;;;;;;;1.30;0.77;;;23.40;63.20;;;;;;5112874;28;20043;-65
2022/08/20 08:25:50;;;;;;;1.92;1.10;;;23.50;63.20;;;;;;5113449;28;20043;-65
2022/08/20 08:28:17;;;;;;;0.77;0.45;;;23.40;63.10;;;;;;5112143;28;20502;-65
2022/08/20 08:30:45;;;;;;;1.50;0.50;;;23.50;63.10;;;;;;5112924;28;20042;-65
2022/08/20 08:33:31;;;;;;;1.23;0.60;;;23.50;63.00;;;;;;5114061;28;20039;-65
2022/08/20 08:38:40;;;;;;;1.45;0.52;;;23.50;62.90;;;;;;5130265;27;20387;-65
2022/08/20 08:46:47;;;;;;;1.77;0.70;;;23.50;62.90;;;;;;5130404;27;20427;-65
2022/08/20 08:49:16;;;;;;;0.93;0.40;;;23.50;62.90;;;;;;5111749;28;20051;-65
2022/08/20 08:51:50;;;;;;;1.23;0.50;;;23.50;62.80;;;;;;5112070;28;20039;-65
2022/08/20 08:54:20;;;;;;;1.25;0.50;;;23.50;62.80;;;;;;5129073;28;20044;-65
2022/08/20 08:56:46;;;;;;;1.85;0.60;;;23.50;62.70;;;;;;5129069;28;20122;-64
2022/08/20 08:59:12;;;;;;;1.25;0.32;;;23.40;62.70;;;;;;5128765;27;20118;-65
2022/08/20 09:01:45;;;;;;;0.85;0.38;;;23.50;62.70;;;;;;5128683;28;20032;-65
2022/08/20 09:04:13;;;;;;;1.27;0.47;;;23.50;62.60;;;;;;5130093;27;20106;-64
2022/08/20 09:06:42;;;;;;;0.82;0.30;;;23.50;62.60;;;;;;5129855;27;20043;-65
2022/08/20 09:12:07;;;;;;;1.20;0.60;;;23.50;62.50;;;;;;5130240;27;20358;-64
2022/08/20 09:14:33;;;;;;;1.67;0.57;;;23.50;62.50;;;;;;5128975;28;20049;-65
2022/08/20 09:16:58;;;;;;;0.85;0.40;;;23.50;62.40;;;;;;5146175;27;20039;-64
2022/08/20 09:19:24;;;;;;;0.60;0.40;;;23.50;63.10;;;;;;5129185;28;20035;-69
2022/08/20 09:21:50;;;;;;;1.05;0.80;;;23.50;62.30;;;;;;5128844;28;20479;-64
2022/08/20 09:24:16;;;;;;;0.88;0.40;;;23.60;62.30;;;;;;5146063;27;20040;-64
2022/08/20 09:26:41;;;;;;;0.85;0.45;;;23.60;62.30;;;;;;5129924;28;20194;-64
2022/08/20 09:29:07;;;;;;;0.82;0.30;;;23.60;62.20;;;;;;5128011;28;20123;-64
2022/08/20 09:31:33;;;;;;;0.95;0.38;;;23.60;62.20;;;;;;5128548;28;20046;-64
2022/08/20 09:33:58;;;;;;;1.45;0.70;;;23.70;62.20;;;;;;5128693;28;20055;-64
2022/08/20 09:36:24;;;;;;;1.13;0.40;;;23.60;62.00;;;;;;5142706;27;20031;-64
2022/08/20 09:38:49;;;;;;;1.13;0.40;;;23.70;62.00;;;;;;5129633;28;20084;-64
2022/08/20 09:41:15;;;;;;;5.72;1.25;;;23.70;61.90;;;;;;5127794;28;20391;-64
2022/08/20 09:43:41;;;;;;;2.53;0.40;;;23.70;61.60;;;;;;5127441;28;20047;-65
2022/08/20 09:46:06;;;;;;;1.40;0.40;;;23.80;61.40;;;;;;5128092;28;20047;-65
2022/08/20 09:48:32;;;;;;;6.97;0.47;;;23.90;61.20;;;;;;5129145;27;20039;-64
2022/08/20 09:50:58;;;;;;;3.00;0.40;;;23.90;60.50;;;;;;5128480;28;20047;-66
2022/08/20 09:53:23;;;;;;;1.00;0.32;;;24.00;59.40;;;;;;5126688;27;20474;-65
2022/08/20 09:55:53;;;;;;;4.05;0.30;;;24.00;59.20;;;;;;5128264;28;20092;-66
2022/08/20 09:58:24;;;;;;;2.97;0.30;;;24.10;58.00;;;;;;5126789;28;20490;-63
2022/08/20 10:00:49;;;;;;;8.45;0.68;;;24.10;58.30;;;;;;5126637;27;20391;-65
2022/08/20 10:03:16;;;;;;;4.35;0.40;;;24.20;58.60;;;;;;5128198;28;20035;-65
2022/08/20 10:05:42;;;;;;;4.55;0.40;;;24.20;58.40;;;;;;5127839;28;20046;-65
2022/08/20 10:08:12;;;;;;;3.88;0.30;;;24.20;58.00;;;;;;5127819;28;20040;-65
2022/08/20 10:10:38;;;;;;;2.33;0.30;;;24.30;57.80;;;;;;5126628;28;20101;-65
2022/08/20 10:13:04;;;;;;;3.95;0.50;;;24.30;57.40;;;;;;5127037;28;20039;-63
2022/08/20 10:15:30;;;;;;;3.05;0.20;;;24.30;56.90;;;;;;5129092;27;20080;-63
2022/08/20 10:17:56;;;;;;;3.97;0.30;;;24.40;56.30;;;;;;5128419;27;20032;-65
2022/08/20 10:20:23;;;;;;;3.00;0.32;;;24.40;56.50;;;;;;5132676;27;20058;-64
2022/08/20 10:22:50;;;;;;;7.68;0.20;;;24.40;56.50;;;;;;5116449;28;20035;-63
2022/08/20 10:25:16;;;;;;;2.60;0.28;;;24.50;56.30;;;;;;5115236;28;20039;-64
2022/08/20 10:27:43;;;;;;;4.40;0.50;;;24.50;56.30;;;;;;5113422;28;20075;-62
2022/08/20 10:30:09;;;;;;;4.88;0.40;;;24.40;56.00;;;;;;5112771;28;20078;-63
2022/08/20 10:32:34;;;;;;;2.15;0.73;;;24.50;55.80;;;;;;5113394;28;20059;-63
2022/08/20 10:35:00;;;;;;;2.55;0.30;;;24.50;55.60;;;;;;5112283;28;20398;-62
2022/08/20 10:37:26;;;;;;;3.00;0.20;;;24.50;55.50;;;;;;5114203;28;20046;-64
2022/08/20 10:39:53;;;;;;;4.72;0.30;;;24.50;55.40;;;;;;5113538;28;20047;-64
2022/08/20 10:42:19;;;;;;;2.35;0.30;;;24.50;55.30;;;;;;5113285;28;20038;-63
2022/08/20 10:44:45;;;;;;;2.75;0.22;;;24.50;55.30;;;;;;5118531;27;20241;-63
2022/08/20 10:49:55;;;;;;;4.35;0.43;;;24.50;55.10;;;;;;5089217;28;20847;-64
2022/08/20 10:52:22;;;;;;;5.10;0.63;;;24.60;54.90;;;;;;5087583;28;20487;-65
2022/08/20 10:54:48;;;;;;;4.70;0.30;;;24.50;54.90;;;;;;5087729;28;20048;-65
2022/08/20 10:57:17;;;;;;;4.22;0.50;;;24.50;54.90;;;;;;5087183;28;20073;-65
2022/08/20 10:59:45;;;;;;;4.07;0.25;;;24.50;55.10;;;;;;5088195;28;20028;-64
2022/08/20 11:02:11;;;;;;;2.70;0.40;;;24.50;55.20;;;;;;5088038;28;20055;-64
2022/08/20 11:04:36;;;;;;;1.60;0.20;;;24.40;55.30;;;;;;5087857;28;20055;-65
2022/08/20 11:09:57;;;;;;;4.40;0.32;;;24.30;55.40;;;;;;5130262;27;20350;-65
2022/08/20 11:12:23;;;;;;;2.13;0.20;;;24.30;55.70;;;;;;5129330;28;20035;-65
2022/08/20 11:14:50;;;;;;;8.05;1.73;;;24.30;55.70;;;;;;5128887;27;20047;-64
2022/08/20 11:17:22;;;;;;;2.60;0.20;;;24.30;55.90;;;;;;5128928;28;20036;-64
2022/08/20 11:19:48;;;;;;;1.95;0.20;;;24.20;56.00;;;;;;5128865;28;20046;-65
2022/08/20 11:22:14;;;;;;;1.42;0.20;;;24.20;56.00;;;;;;5130290;27;20130;-65
2022/08/20 11:24:40;;;;;;;2.53;0.50;;;24.20;56.10;;;;;;5128660;28;20122;-66
2022/08/20 11:27:07;;;;;;;3.10;0.20;;;24.20;56.20;;;;;;5128702;28;20045;-65
2022/08/20 11:29:34;;;;;;;3.53;0.30;;;24.20;56.20;;;;;;5128579;28;20070;-65
2022/08/20 11:31:59;;;;;;;1.88;0.20;;;24.20;56.30;;;;;;5128619;28;20297;-65
2022/08/20 11:34:25;;;;;;;1.27;0.20;;;24.10;56.30;;;;;;5128476;28;20043;-65
2022/08/20 11:36:51;;;;;;;1.52;0.30;;;24.10;56.30;;;;;;5128704;28;20368;-64
2022/08/20 11:39:18;;;;;;;1.30;0.20;;;24.10;56.30;;;;;;5129841;27;20035;-65
2022/08/20 11:41:44;;;;;;;1.45;0.20;;;24.10;56.40;;;;;;5128566;28;20429;-65
2022/08/20 11:44:10;;;;;;;1.50;0.20;;;24.10;56.40;;;;;;5129657;27;20126;-65
2022/08/20 11:46:35;;;;;;;1.13;0.25;;;24.10;56.40;;;;;;5128405;28;20133;-65
2022/08/20 11:49:01;;;;;;;1.15;0.20;;;24.10;56.50;;;;;;5111139;28;20123;-65
2022/08/20 11:51:27;;;;;;;1.83;0.20;;;24.10;56.60;;;;;;5128500;28;20031;-65
2022/08/20 11:53:53;;;;;;;0.90;0.13;;;24.10;56.50;;;;;;5128311;28;20368;-66
2022/08/20 11:56:19;;;;;;;1.55;0.50;;;24.10;56.50;;;;;;5128069;28;20082;-65
2022/08/20 11:58:45;;;;;;;2.28;0.30;;;24.00;56.50;;;;;;5129484;27;20391;-65
2022/08/20 12:01:12;;;;;;;1.25;0.10;;;24.00;56.50;;;;;;5128292;28;20043;-65
2022/08/20 12:03:38;;;;;;;3.53;0.30;;;24.00;56.60;;;;;;5128196;28;20043;-65
2022/08/20 12:06:04;;;;;;;2.25;0.40;;;24.00;56.60;;;;;;5129182;27;20395;-65
2022/08/20 12:08:30;;;;;;;1.73;0.20;;;24.00;56.70;;;;;;5127736;28;20521;-64
2022/08/20 12:10:59;;;;;;;0.75;0.17;;;24.00;56.70;;;;;;5110682;28;20242;-65
2022/08/20 12:13:26;;;;;;;1.85;0.28;;;24.00;56.70;;;;;;5128126;28;20061;-65
2022/08/20 12:15:53;;;;;;;2.40;0.17;;;24.00;56.70;;;;;;5127858;28;20039;-65
2022/08/20 12:18:19;;;;;;;1.35;0.20;;;24.00;56.70;;;;;;5128207;28;20043;-65
2022/08/20 12:20:45;;;;;;;1.23;0.20;;;24.00;56.70;;;;;;5118240;27;20483;-65
2022/08/20 12:23:10;;;;;;;1.13;0.20;;;24.00;56.70;;;;;;5113866;28;20493;-64
2022/08/20 12:25:36;;;;;;;0.95;0.20;;;24.00;56.80;;;;;;5114115;28;20101;-65
2022/08/20 12:28:03;;;;;;;1.40;0.30;;;24.00;56.80;;;;;;5114024;28;20067;-65
2022/08/20 12:30:30;;;;;;;1.77;0.20;;;24.00;56.80;;;;;;5115185;27;20046;-66
2022/08/20 12:32:56;;;;;;;2.40;0.30;;;23.90;56.70;;;;;;5113795;28;20074;-65
2022/08/20 12:35:22;;;;;;;1.13;0.20;;;24.00;56.70;;;;;;5114900;28;20071;-65
2022/08/20 12:37:48;;;;;;;1.10;0.20;;;24.00;56.70;;;;;;5113651;28;20043;-65
2022/08/20 12:40:17;;;;;;;0.70;0.30;;;24.00;56.70;;;;;;5114978;28;20089;-66
2022/08/20 12:42:43;;;;;;;0.80;0.20;;;24.00;56.70;;;;;;5113863;28;20141;-65
2022/08/20 12:45:10;;;;;;;1.45;0.10;;;24.00;56.70;;;;;;5113472;28;20044;-65
2022/08/20 12:47:39;;;;;;;0.95;0.20;;;24.00;56.70;;;;;;5113375;28;20059;-65
2022/08/20 12:50:09;;;;;;;1.67;0.20;;;23.90;56.60;;;;;;5113518;28;20470;-65
2022/08/20 12:52:39;;;;;;;1.65;0.20;;;23.90;56.60;;;;;;5113659;28;20378;-65
2022/08/20 12:55:07;;;;;;;1.55;0.35;;;23.90;56.60;;;;;;5113850;28;20040;-65
2022/08/20 12:57:40;;;;;;;1.33;0.10;;;23.90;56.60;;;;;;5113219;28;20047;-65
2022/08/20 13:00:13;;;;;;;0.80;0.35;;;23.90;56.60;;;;;;5113542;28;20035;-65
2022/08/20 13:02:40;;;;;;;1.00;0.20;;;24.00;56.50;;;;;;5113349;28;20036;-65
2022/08/20 13:05:07;;;;;;;3.15;0.15;;;23.90;56.50;;;;;;5113443;28;20096;-65
2022/08/20 13:07:34;;;;;;;0.88;0.30;;;23.90;56.40;;;;;;5114196;27;20039;-65
2022/08/20 13:10:00;;;;;;;1.33;0.20;;;23.90;56.40;;;;;;5113291;28;20402;-65
2022/08/20 13:12:27;;;;;;;1.08;0.10;;;23.90;56.40;;;;;;5113043;28;20051;-65
2022/08/20 13:14:53;;;;;;;0.98;0.10;;;23.90;56.40;;;;;;5114184;28;20040;-65
2022/08/20 13:17:19;;;;;;;0.98;0.10;;;23.90;56.30;;;;;;5114127;28;20092;-65